Time;durP1;ratioP1;P1;durP2;ratioP2;P2;SDS_P1;SDS_P2;PMS_P1;PMS_P2;Temp;Humidity;BMP_temperature;BMP_pressure;BME280_temperature;BME280_humidity;BME280_pressure;Samples;Min_cycle;Max_cycle;Signal;HPM_P1;HPM_P2
2022/02/26 00:00:07;;;;;;;;;;;;;;;27.56;51.33;101245.28;5041956;27;70758;-41
2022/02/26 00:02:38;;;;;;;;;;;;;;;27.61;53.26;101244.72;5000124;28;65554;-41
2022/02/26 00:05:09;;;;;;;;;;;;;;;27.72;53.70;101254.16;4972514;28;70195;-41
2022/02/26 00:07:39;;;;;;;;;;;;;;;27.74;54.67;101262.88;4976387;28;66367;-41
2022/02/26 00:10:10;;;;;;;;;;;;;;;27.80;55.09;101256.75;4968209;28;70077;-41
2022/02/26 00:12:40;;;;;;;;;;;;;;;27.83;55.56;101267.16;4973999;28;65598;-41
2022/02/26 00:15:10;;;;;;;;;;;;;;;27.84;55.39;101264.28;4974845;28;69835;-40
2022/02/26 00:17:40;;;;;;;;;;;;;;;27.88;56.13;101270.13;4965407;28;65172;-45
2022/02/26 00:20:10;;;;;;;;;;;;;;;27.90;56.44;101265.38;5036626;27;70236;-39
2022/02/26 00:22:41;;;;;;;;;;;;;;;27.93;56.06;101262.31;4958421;28;65115;-41
2022/02/26 00:25:11;;;;;;;;;;;;;;;27.96;56.87;101278.09;4958041;28;69801;-40
2022/02/26 00:27:42;;;;;;;;;;;;;;;27.99;56.69;101277.72;4965619;28;66158;-40
2022/02/26 00:30:12;;;;;;;;;;;;;;;28.01;57.07;101286.44;4979659;28;69918;-39
2022/02/26 00:32:43;;;;;;;;;;;;;;;28.02;57.30;101293.50;4975862;28;66272;-40
2022/02/26 00:35:14;;;;;;;;;;;;;;;28.05;57.03;101282.38;4966039;28;70041;-40
2022/02/26 00:37:43;;;;;;;;;;;;;;;28.06;57.55;101285.88;4979090;28;66407;-40
2022/02/26 00:40:13;;;;;;;;;;;;;;;28.07;57.45;101291.06;4979493;28;69773;-40
2022/02/26 00:42:46;;;;;;;;;;;;;;;28.13;57.73;101291.34;4979398;28;66353;-40
2022/02/26 00:45:17;;;;;;;;;;;;;;;28.12;57.77;101292.38;4978013;27;70545;-39
2022/02/26 00:47:49;;;;;;;;;;;;;;;28.15;57.66;101297.38;4959278;28;65936;-40
2022/02/26 00:50:19;;;;;;;;;;;;;;;28.15;57.83;101297.38;4973440;28;69362;-42
2022/02/26 00:52:49;;;;;;;;;;;;;;;28.07;57.55;101296.47;4975539;28;66522;-42
2022/02/26 00:55:19;;;;;;;;;;;;;;;28.02;57.61;101301.59;4979690;27;69726;-42
2022/02/26 00:57:51;;;;;;;;;;;;;;;28.04;57.85;101312.19;4962366;28;65551;-42
2022/02/26 01:00:20;;;;;;;;;;;;;;;28.04;57.92;101318.44;4986247;28;69806;-43
2022/02/26 01:02:52;;;;;;;;;;;;;;;27.99;58.09;101320.84;4993047;28;66444;-41
2022/02/26 01:05:23;;;;;;;;;;;;;;;27.95;57.66;101322.28;4978551;28;67627;-41
2022/02/26 01:07:54;;;;;;;;;;;;;;;27.97;58.11;101328.31;4977721;28;67653;-43
2022/02/26 01:10:23;;;;;;;;;;;;;;;27.96;57.84;101321.25;4979536;28;69213;-43
2022/02/26 01:12:54;;;;;;;;;;;;;;;27.98;58.91;101324.59;4977981;28;66926;-42
2022/02/26 01:15:24;;;;;;;;;;;;;;;28.03;58.76;101322.16;4952218;28;69853;-41
2022/02/26 01:17:56;;;;;;;;;;;;;;;28.05;58.24;101327.34;4977137;28;66267;-42
2022/02/26 01:20:26;;;;;;;;;;;;;;;28.07;58.61;101338.78;4962307;28;70229;-46
2022/02/26 01:22:58;;;;;;;;;;;;;;;28.04;58.12;101342.69;4975523;28;65580;-41
2022/02/26 01:25:27;;;;;;;;;;;;;;;28.01;58.39;101351.16;4981262;28;69237;-43
2022/02/26 01:27:59;;;;;;;;;;;;;;;28.06;58.65;101347.91;4979396;28;66283;-41
2022/02/26 01:30:29;;;;;;;;;;;;;;;28.09;58.65;101352.94;4952350;28;69895;-44
2022/02/26 01:33:00;;;;;;;;;;;;;;;28.11;58.58;101352.72;4962360;28;66221;-44
2022/02/26 01:35:31;;;;;;;;;;;;;;;28.15;58.06;101345.94;4977891;27;71931;-43
2022/02/26 01:38:02;;;;;;;;;;;;;;;28.14;58.48;101349.63;4979262;28;66434;-44
2022/02/26 01:40:34;;;;;;;;;;;;;;;28.18;58.74;101345.56;4977569;27;70816;-48
2022/02/26 01:43:05;;;;;;;;;;;;;;;28.23;58.22;101348.50;4978693;28;66445;-44
2022/02/26 01:45:35;;;;;;;;;;;;;;;28.24;57.98;101355.56;4972765;28;70426;-43
2022/02/26 01:48:05;;;;;;;;;;;;;;;28.27;58.07;101349.78;4979114;28;66711;-45
2022/02/26 01:50:34;;;;;;;;;;;;;;;28.26;57.67;101348.97;4978839;28;70326;-45
2022/02/26 01:53:07;;;;;;;;;;;;;;;28.28;58.03;101356.88;4979115;28;66686;-44
2022/02/26 01:55:38;;;;;;;;;;;;;;;28.29;57.87;101353.13;4980158;28;70303;-44
2022/02/26 01:58:08;;;;;;;;;;;;;;;28.36;57.39;101356.75;4967416;28;65547;-46
2022/02/26 02:00:38;;;;;;;;;;;;;;;28.38;57.03;101353.84;4978417;28;70707;-43
2022/02/26 02:03:09;;;;;;;;;;;;;;;28.41;56.50;101357.00;4980187;28;65956;-45
2022/02/26 02:05:39;;;;;;;;;;;;;;;28.43;56.42;101349.56;4976964;28;70061;-44
2022/02/26 02:08:13;;;;;;;;;;;;;;;28.47;56.71;101358.13;4978011;28;66713;-45
2022/02/26 02:10:43;;;;;;;;;;;;;;;28.52;56.59;101356.50;4977757;28;69765;-43
2022/02/26 02:13:13;;;;;;;;;;;;;;;28.59;56.39;101359.28;4976055;28;66333;-44
2022/02/26 02:15:43;;;;;;;;;;;;;;;28.60;56.67;101365.50;4961864;28;69805;-44
2022/02/26 02:18:14;;;;;;;;;;;;;;;28.66;56.39;101362.03;4976880;28;65962;-44
2022/02/26 02:20:45;;;;;;;;;;;;;;;28.72;56.26;101363.94;4958672;28;69249;-49
2022/02/26 02:23:15;;;;;;;;;;;;;;;28.78;56.09;101354.25;4977347;28;65622;-42
2022/02/26 02:25:46;;;;;;;;;;;;;;;28.80;56.66;101354.88;4976952;28;69984;-41
2022/02/26 02:28:17;;;;;;;;;;;;;;;28.95;55.63;101351.06;4959514;28;66403;-43
2022/02/26 02:30:47;;;;;;;;;;;;;;;28.99;55.12;101356.91;4978086;28;69016;-42
2022/02/26 02:33:17;;;;;;;;;;;;;;;29.02;55.13;101355.69;4973553;28;65999;-43
2022/02/26 02:35:48;;;;;;;;;;;;;;;29.05;54.77;101349.91;4965351;28;70095;-42
2022/02/26 02:38:19;;;;;;;;;;;;;;;29.10;54.66;101345.59;4977576;28;65611;-43
2022/02/26 02:40:50;;;;;;;;;;;;;;;29.16;54.29;101341.28;4977558;28;70114;-45
2022/02/26 02:43:20;;;;;;;;;;;;;;;29.18;54.59;101342.75;4975280;28;66817;-44
2022/02/26 02:45:51;;;;;;;;;;;;;;;29.27;54.20;101348.81;4976394;28;68818;-43
2022/02/26 02:48:22;;;;;;;;;;;;;;;29.35;54.08;101345.13;4977838;28;66762;-43
2022/02/26 02:50:52;;;;;;;;;;;;;;;29.40;53.51;101338.09;4976813;28;70232;-44
2022/02/26 02:53:23;;;;;;;;;;;;;;;29.48;53.30;101330.88;4979107;28;64942;-47
2022/02/26 02:55:53;;;;;;;;;;;;;;;29.50;53.52;101328.78;4977061;28;69962;-48
2022/02/26 02:58:27;;;;;;;;;;;;;;;29.55;53.54;101329.03;4976817;28;67075;-46
2022/02/26 03:00:58;;;;;;;;;;;;;;;29.63;52.89;101328.88;4959260;28;69734;-45
2022/02/26 03:03:28;;;;;;;;;;;;;;;29.66;52.45;101323.06;4977643;28;65313;-44
2022/02/26 03:06:00;;;;;;;;;;;;;;;29.70;52.32;101313.53;4978998;28;70123;-51
2022/02/26 03:08:30;;;;;;;;;;;;;;;29.79;52.37;101311.50;4956435;28;66359;-42
2022/02/26 03:11:00;;;;;;;;;;;;;;;29.77;52.01;101303.56;4974572;28;70224;-43
2022/02/26 03:13:31;;;;;;;;;;;;;;;29.80;52.15;101307.72;4964959;28;65370;-43
2022/02/26 03:16:01;;;;;;;;;;;;;;;29.81;52.68;101304.84;4977787;28;70070;-46
2022/02/26 03:18:32;;;;;;;;;;;;;;;29.88;52.87;101304.03;4977006;28;66436;-43
2022/02/26 03:21:01;;;;;;;;;;;;;;;29.92;52.51;101294.44;4977799;28;69395;-45
2022/02/26 03:23:33;;;;;;;;;;;;;;;29.98;51.73;101289.06;4977379;28;66304;-44
2022/02/26 03:26:03;;;;;;;;;;;;;;;29.98;52.14;101282.84;4971531;28;69768;-44
2022/02/26 03:28:37;;;;;;;;;;;;;;;29.98;51.80;101283.66;4987657;27;65754;-44
2022/02/26 03:31:07;;;;;;;;;;;;;;;29.99;52.41;101273.66;4993668;27;69983;-44
2022/02/26 03:33:38;;;;;;;;;;;;;;;29.98;52.37;101275.56;4942946;28;66551;-43
2022/02/26 03:36:08;;;;;;;;;;;;;;;30.03;52.10;101273.06;4965778;28;70812;-43
2022/02/26 03:38:42;;;;;;;;;;;;;;;30.05;52.25;101265.56;4977725;28;65593;-41
2022/02/26 03:41:13;;;;;;;;;;;;;;;30.09;51.89;101271.41;4972817;28;69599;-42
2022/02/26 03:43:45;;;;;;;;;;;;;;;30.10;52.07;101264.94;4978234;28;66684;-43
2022/02/26 03:46:15;;;;;;;;;;;;;;;30.15;52.00;101262.47;4977659;28;69346;-42
2022/02/26 03:48:46;;;;;;;;;;;;;;;30.26;51.22;101264.59;4977410;28;66919;-43
2022/02/26 03:51:16;;;;;;;;;;;;;;;30.26;50.74;101259.19;4967040;28;70293;-49
2022/02/26 03:53:45;;;;;;;;;;;;;;;30.32;50.85;101256.69;4974662;28;66448;-43
2022/02/26 03:56:15;;;;;;;;;;;;;;;30.40;50.35;101254.59;4970799;28;69091;-43
2022/02/26 03:58:45;;;;;;;;;;;;;;;30.53;49.98;101248.34;4978989;28;66819;-43
2022/02/26 04:01:15;;;;;;;;;;;;;;;30.55;49.64;101240.84;4962922;28;70039;-41
2022/02/26 04:03:45;;;;;;;;;;;;;;;30.54;50.46;101250.03;4979928;28;66875;-44
2022/02/26 04:06:15;;;;;;;;;;;;;;;30.59;50.17;101242.09;4976229;28;70371;-42
2022/02/26 04:08:46;;;;;;;;;;;;;;;30.63;50.04;101237.09;4982048;28;67504;-43
2022/02/26 04:11:17;;;;;;;;;;;;;;;30.72;48.88;101235.81;4978808;28;70026;-44
2022/02/26 04:13:48;;;;;;;;;;;;;;;30.79;49.41;101225.81;4971172;28;66387;-49
2022/02/26 04:16:18;;;;;;;;;;;;;;;30.81;49.50;101218.31;4967363;28;70153;-43
2022/02/26 04:18:49;;;;;;;;;;;;;;;30.86;49.37;101218.53;4984300;28;66898;-44
2022/02/26 04:21:19;;;;;;;;;;;;;;;30.97;48.95;101203.50;4973708;28;70537;-45
2022/02/26 04:23:49;;;;;;;;;;;;;;;31.00;49.05;101210.38;4965046;28;65883;-44
2022/02/26 04:26:22;;;;;;;;;;;;;;;31.01;48.76;101198.47;4976188;28;69379;-47
2022/02/26 04:28:52;;;;;;;;;;;;;;;30.98;49.35;101186.22;4976831;28;66042;-42
2022/02/26 04:31:23;;;;;;;;;;;;;;;30.76;48.69;101138.72;4960962;28;70159;-44
2022/02/26 04:33:53;;;;;;;;;;;;;;;31.01;48.74;101174.94;4976345;28;66846;-44
2022/02/26 04:36:23;;;;;;;;;;;;;;;31.05;48.76;101173.47;4994824;28;70176;-44
2022/02/26 04:38:53;;;;;;;;;;;;;;;31.09;48.77;101171.16;5036670;28;66478;-45
2022/02/26 04:41:24;;;;;;;;;;;;;;;31.09;49.20;101161.16;4970227;28;69247;-44
2022/02/26 04:43:55;;;;;;;;;;;;;;;31.10;49.36;101151.16;4962370;28;66466;-45
2022/02/26 04:46:26;;;;;;;;;;;;;;;31.15;48.42;101149.47;4974642;28;69515;-44
2022/02/26 04:48:56;;;;;;;;;;;;;;;31.16;48.88;101145.69;4959444;28;65811;-43
2022/02/26 04:51:26;;;;;;;;;;;;;;;31.18;48.58;101137.34;4975242;28;69724;-44
2022/02/26 04:53:57;;;;;;;;;;;;;;;31.23;48.22;101134.84;4974547;28;66805;-44
2022/02/26 04:56:27;;;;;;;;;;;;;;;31.24;48.94;101120.22;4975582;28;69368;-44
2022/02/26 04:58:59;;;;;;;;;;;;;;;31.24;48.69;101120.22;4945396;28;66459;-44
2022/02/26 05:01:29;;;;;;;;;;;;;;;31.27;48.49;101110.84;4969200;28;70543;-44
2022/02/26 05:04:00;;;;;;;;;;;;;;;31.30;47.74;101102.25;4986569;28;65276;-44
2022/02/26 05:06:30;;;;;;;;;;;;;;;31.31;47.80;101101.19;4977306;28;70236;-44
2022/02/26 05:09:01;;;;;;;;;;;;;;;31.32;48.32;101108.31;4959383;28;67159;-44
2022/02/26 05:11:31;;;;;;;;;;;;;;;31.37;48.34;101094.94;4969637;28;69177;-44
2022/02/26 05:14:03;;;;;;;;;;;;;;;31.41;47.88;101098.06;4982034;28;66388;-44
2022/02/26 05:16:33;;;;;;;;;;;;;;;31.43;49.11;101093.25;4958052;28;69032;-43
2022/02/26 05:19:05;;;;;;;;;;;;;;;31.38;49.20;101077.63;4974076;28;66443;-43
2022/02/26 05:21:39;;;;;;;;;;;;;;;31.31;49.29;101079.53;4976281;28;70220;-43
2022/02/26 05:24:09;;;;;;;;;;;;;;;31.26;49.65;101065.78;4978956;28;66493;-41
2022/02/26 05:26:39;;;;;;;;;;;;;;;31.23;50.48;101058.09;4975981;28;70619;-41
2022/02/26 05:29:09;;;;;;;;;;;;;;;31.18;50.28;101053.34;4975087;28;66908;-42
2022/02/26 05:31:38;;;;;;;;;;;;;;;31.15;50.26;101046.50;4971200;28;70354;-42
2022/02/26 05:34:09;;;;;;;;;;;;;;;31.13;50.70;101042.34;4977062;28;65485;-42
2022/02/26 05:36:42;;;;;;;;;;;;;;;31.05;51.44;101043.41;4977016;28;69759;-42
2022/02/26 05:39:12;;;;;;;;;;;;;;;31.04;52.29;101032.81;4976154;28;65958;-45
2022/02/26 05:41:42;;;;;;;;;;;;;;;31.05;51.89;101026.34;4976006;28;69863;-42
2022/02/26 05:44:12;;;;;;;;;;;;;;;31.03;52.32;101023.81;4977005;28;66671;-44
2022/02/26 05:46:42;;;;;;;;;;;;;;;31.05;52.54;101027.16;4978852;28;69870;-42
2022/02/26 05:49:12;;;;;;;;;;;;;;;31.04;52.66;101020.09;4977010;28;66482;-42
2022/02/26 05:51:41;;;;;;;;;;;;;;;31.04;52.55;101020.09;4977222;28;70759;-41
2022/02/26 05:54:11;;;;;;;;;;;;;;;31.07;52.02;101011.53;4980306;28;66914;-42
2022/02/26 05:56:41;;;;;;;;;;;;;;;31.06;52.05;101009.84;4977103;28;70164;-41
2022/02/26 05:59:11;;;;;;;;;;;;;;;31.05;52.07;101002.78;4973824;28;66735;-41
2022/02/26 06:01:41;;;;;;;;;;;;;;;31.07;52.48;100995.28;4979043;28;70221;-42
2022/02/26 06:04:10;;;;;;;;;;;;;;;31.05;52.27;100989.22;4985367;28;65538;-41
2022/02/26 06:06:40;;;;;;;;;;;;;;;31.05;52.36;100983.81;4977903;28;70360;-42
2022/02/26 06:09:10;;;;;;;;;;;;;;;31.09;52.78;100973.34;4977393;28;66926;-42
2022/02/26 06:11:40;;;;;;;;;;;;;;;31.10;52.31;100972.31;4957600;28;69245;-42
2022/02/26 06:14:09;;;;;;;;;;;;;;;31.13;52.02;100970.00;4971724;28;65487;-41
2022/02/26 06:16:39;;;;;;;;;;;;;;;31.12;51.98;100970.22;4970314;28;69703;-42
2022/02/26 06:19:09;;;;;;;;;;;;;;;31.15;52.07;100969.78;4972067;28;66921;-43
2022/02/26 06:21:39;;;;;;;;;;;;;;;31.16;52.15;100961.44;4976171;28;71492;-42
2022/02/26 06:24:09;;;;;;;;;;;;;;;31.21;51.95;100951.81;4961883;28;66527;-41
2022/02/26 06:26:38;;;;;;;;;;;;;;;31.22;51.84;100953.47;4976826;28;70381;-42
2022/02/26 06:29:08;;;;;;;;;;;;;;;31.26;52.00;100943.84;4977589;28;67169;-42
2022/02/26 06:31:38;;;;;;;;;;;;;;;31.27;52.02;100940.09;4986785;28;70230;-43
2022/02/26 06:34:07;;;;;;;;;;;;;;;31.28;51.87;100930.91;4969505;28;65574;-41
2022/02/26 06:36:38;;;;;;;;;;;;;;;31.29;52.24;100932.56;4976218;28;70056;-42
2022/02/26 06:39:09;;;;;;;;;;;;;;;31.30;52.21;100924.22;4976391;28;66895;-42
2022/02/26 06:41:39;;;;;;;;;;;;;;;31.32;51.82;100924.81;4957299;28;69959;-43
2022/02/26 06:44:08;;;;;;;;;;;;;;;31.32;52.17;100916.69;4978145;28;67131;-41
2022/02/26 06:46:39;;;;;;;;;;;;;;;31.35;52.07;100915.41;4976456;28;70307;-41
2022/02/26 06:49:10;;;;;;;;;;;;;;;31.36;51.47;100911.69;4977553;28;66294;-42
2022/02/26 06:51:39;;;;;;;;;;;;;;;31.36;51.95;100909.78;4980518;28;71066;-42
2022/02/26 06:54:09;;;;;;;;;;;;;;;31.37;51.88;100908.75;4979848;27;66289;-43
2022/02/26 06:56:39;;;;;;;;;;;;;;;31.36;51.78;100906.25;4973482;28;68589;-43
2022/02/26 06:59:11;;;;;;;;;;;;;;;31.40;51.16;100907.47;4976277;28;66833;-44
2022/02/26 07:01:46;;;;;;;;;;;;;;;31.43;51.33;100901.63;4957871;28;69318;-42
2022/02/26 07:04:16;;;;;;;;;;;;;;;31.34;51.30;100870.38;4977673;28;66260;-41
2022/02/26 07:06:46;;;;;;;;;;;;;;;31.46;51.65;100889.50;4975045;28;69320;-43
2022/02/26 07:09:17;;;;;;;;;;;;;;;31.47;51.89;100891.13;4975315;28;65790;-46
2022/02/26 07:12:23;;;;;;;;;;;;;;;31.58;50.04;100884.97;4964951;28;70122;-40
2022/02/26 07:14:52;;;;;;;;;;;;;;;31.66;50.16;100879.25;4956483;28;66464;-41
2022/02/26 07:17:22;;;;;;;;;;;;;;;31.73;49.84;100871.88;4972109;28;70267;-41
2022/02/26 07:19:52;;;;;;;;;;;;;;;31.75;49.90;100866.22;4978309;28;65718;-41
2022/02/26 07:22:22;;;;;;;;;;;;;;;31.74;49.97;100864.56;4975138;28;69832;-49
2022/02/26 07:24:52;;;;;;;;;;;;;;;31.76;50.46;100862.44;4935793;28;66054;-43
2022/02/26 07:27:22;;;;;;;;;;;;;;;31.76;50.55;100859.72;4937816;28;69010;-50
2022/02/26 07:29:57;;;;;;;;;;;;;;;31.78;50.69;100849.50;4923210;28;65312;-48
2022/02/26 07:32:52;;;;;;;;;;;;;;;31.78;50.40;100838.63;4921680;28;70116;-44
2022/02/26 07:35:23;;;;;;;;;;;;;;;31.79;50.57;100846.56;4916980;28;65441;-46
2022/02/26 07:37:53;;;;;;;;;;;;;;;31.80;50.78;100839.25;4935900;28;69985;-41
2022/02/26 07:40:23;;;;;;;;;;;;;;;31.82;49.94;100837.16;4911463;28;67665;-41
2022/02/26 07:42:53;;;;;;;;;;;;;;;31.81;49.14;100830.03;4929484;28;69976;-43
2022/02/26 07:45:23;;;;;;;;;;;;;;;31.82;48.31;100818.97;4932334;28;65270;-43
2022/02/26 07:47:53;;;;;;;;;;;;;;;31.82;48.71;100812.72;4919283;28;70201;-42
2022/02/26 07:50:23;;;;;;;;;;;;;;;31.88;48.71;100819.94;4933190;28;65263;-41
2022/02/26 07:52:52;;;;;;;;;;;;;;;31.91;48.80;100815.94;4937336;28;69204;-42
2022/02/26 07:55:22;;;;;;;;;;;;;;;31.94;49.57;100813.63;4938987;28;66411;-42
2022/02/26 07:57:52;;;;;;;;;;;;;;;31.96;49.60;100816.94;4923904;28;70085;-43
2022/02/26 08:00:22;;;;;;;;;;;;;;;32.01;50.13;100810.81;4938618;28;65581;-42
2022/02/26 08:02:52;;;;;;;;;;;;;;;32.05;50.20;100818.28;4924622;28;70272;-42
2022/02/26 08:05:22;;;;;;;;;;;;;;;32.08;50.91;100810.75;4937732;28;66453;-45
2022/02/26 08:07:53;;;;;;;;;;;;;;;32.13;51.34;100811.72;4920453;28;70253;-42
2022/02/26 08:10:23;;;;;;;;;;;;;;;32.18;51.73;100800.13;4938810;28;66621;-41
2022/02/26 08:12:55;;;;;;;;;;;;;;;32.19;51.68;100801.81;4936898;28;70648;-44
2022/02/26 08:15:31;;;;;;;;;;;;;;;32.19;51.87;100797.22;4927670;28;66087;-41
2022/02/26 08:18:01;;;;;;;;;;;;;;;32.19;52.31;100807.25;4936676;28;69831;-41
2022/02/26 08:20:34;;;;;;;;;;;;;;;32.21;52.20;100800.53;4944851;28;65464;-42
2022/02/26 08:23:04;;;;;;;;;;;;;;;32.21;52.23;100805.13;4948510;28;70157;-42
2022/02/26 08:25:34;;;;;;;;;;;;;;;32.20;52.31;100804.28;4974727;28;66365;-54
2022/02/26 08:28:04;;;;;;;;;;;;;;;32.22;52.00;100815.75;4975087;28;69895;-43
2022/02/26 08:30:34;;;;;;;;;;;;;;;32.26;51.77;100807.97;4976809;28;66660;-42
2022/02/26 08:33:05;;;;;;;;;;;;;;;32.25;51.74;100806.31;4973967;28;70415;-46
2022/02/26 08:35:37;;;;;;;;;;;;;;;32.26;51.55;100806.09;4959926;28;65982;-46
2022/02/26 08:38:11;;;;;;;;;;;;;;;32.27;51.04;100809.63;4945034;28;69250;-46
2022/02/26 08:40:41;;;;;;;;;;;;;;;32.28;51.49;100808.56;4970743;28;66473;-43
2022/02/26 08:43:11;;;;;;;;;;;;;;;32.29;51.57;100807.53;4980787;28;70269;-46
2022/02/26 08:45:43;;;;;;;;;;;;;;;32.26;51.87;100805.25;4954715;28;65538;-42
2022/02/26 08:48:13;;;;;;;;;;;;;;;32.33;50.29;100807.88;4973281;28;69109;-41
2022/02/26 08:50:43;;;;;;;;;;;;;;;32.34;50.51;100810.34;4979623;28;67364;-41
2022/02/26 08:53:13;;;;;;;;;;;;;;;32.43;49.63;100808.97;4978941;28;68753;-42
2022/02/26 08:55:42;;;;;;;;;;;;;;;32.51;50.49;100815.13;4978125;28;66101;-41
2022/02/26 08:58:12;;;;;;;;;;;;;;;32.53;51.07;100818.44;4971124;28;70104;-41
2022/02/26 09:00:42;;;;;;;;;;;;;;;32.57;51.46;100820.47;4958191;28;66176;-42
2022/02/26 09:03:12;;;;;;;;;;;;;;;32.68;52.04;100822.38;4960764;28;71181;-44
2022/02/26 09:05:44;;;;;;;;;;;;;;;32.69;52.00;100828.63;4977446;28;66493;-41
2022/02/26 09:08:13;;;;;;;;;;;;;;;32.70;51.46;100824.84;5043232;28;70821;-42
2022/02/26 09:10:43;;;;;;;;;;;;;;;32.70;51.40;100822.13;4974094;28;66216;-42
2022/02/26 09:13:13;;;;;;;;;;;;;;;32.71;52.49;100831.97;4975505;28;69838;-42
2022/02/26 09:15:43;;;;;;;;;;;;;;;32.74;53.17;100834.22;4977174;28;65886;-42
2022/02/26 09:18:13;;;;;;;;;;;;;;;32.74;53.95;100838.81;4977160;28;69726;-42
2022/02/26 09:20:43;;;;;;;;;;;;;;;32.82;53.14;100839.28;4968960;28;66749;-43
2022/02/26 09:23:13;;;;;;;;;;;;;;;32.84;53.09;100837.16;4975977;28;70352;-43
2022/02/26 09:25:43;;;;;;;;;;;;;;;32.89;53.27;100833.75;4976260;28;65733;-41
2022/02/26 09:28:15;;;;;;;;;;;;;;;32.89;53.00;100842.72;4977660;28;69024;-41
2022/02/26 09:30:45;;;;;;;;;;;;;;;32.88;53.29;100842.97;4976524;28;65665;-42
2022/02/26 09:33:16;;;;;;;;;;;;;;;32.88;53.69;100838.34;4977008;28;70363;-44
2022/02/26 09:35:46;;;;;;;;;;;;;;;32.87;54.24;100842.09;4977391;28;66886;-44
2022/02/26 09:38:17;;;;;;;;;;;;;;;32.85;54.91;100838.00;4977370;28;69292;-42
2022/02/26 09:40:49;;;;;;;;;;;;;;;32.80;54.76;100841.41;4976505;28;66302;-43
2022/02/26 09:43:20;;;;;;;;;;;;;;;32.81;55.21;100848.47;4980345;28;70452;-43
2022/02/26 09:45:51;;;;;;;;;;;;;;;32.79;55.54;100841.63;4978681;28;65790;-44
2022/02/26 09:48:23;;;;;;;;;;;;;;;32.76;55.80;100848.34;4959200;28;70420;-46
2022/02/26 09:50:57;;;;;;;;;;;;;;;32.80;56.02;100846.84;4958017;28;65743;-45
2022/02/26 09:53:28;;;;;;;;;;;;;;;32.77;55.92;100847.31;4985934;27;69889;-49
2022/02/26 09:56:07;;;;;;;;;;;;;;;32.73;56.34;100846.09;4943618;28;65015;-48
2022/02/26 09:58:41;;;;;;;;;;;;;;;32.74;56.04;100853.22;4951782;28;69908;-45
2022/02/26 10:01:11;;;;;;;;;;;;;;;32.70;55.98;100857.44;4989637;28;66529;-52
2022/02/26 10:03:42;;;;;;;;;;;;;;;32.68;55.88;100865.00;4977582;28;70255;-45
2022/02/26 10:06:14;;;;;;;;;;;;;;;32.65;56.47;100865.47;4974828;28;66926;-46
2022/02/26 10:08:53;;;;;;;;;;;;;;;32.63;57.12;100878.47;4988494;28;70516;-44
2022/02/26 10:11:26;;;;;;;;;;;;;;;32.65;57.75;100884.47;4980187;27;66705;-43
2022/02/26 10:14:16;;;;;;;;;;;;;;;32.61;58.28;100886.00;4961122;28;69924;-44
2022/02/26 10:16:54;;;;;;;;;;;;;;;32.66;58.52;100881.53;4973634;28;65565;-43
2022/02/26 10:19:26;;;;;;;;;;;;;;;32.65;58.76;100877.19;4975469;28;70797;-45
2022/02/26 10:22:09;;;;;;;;;;;;;;;32.62;59.01;100884.94;4957593;28;64958;-53
2022/02/26 10:25:03;;;;;;;;;;;;;;;32.63;57.97;100884.72;4974406;28;69306;-44
2022/02/26 10:28:01;;;;;;;;;;;;;;;32.65;57.94;100887.19;4977840;28;65767;-44
2022/02/26 10:30:36;;;;;;;;;;;;;;;32.64;57.76;100893.69;4978573;28;69908;-43
2022/02/26 10:33:07;;;;;;;;;;;;;;;32.62;57.16;100898.50;4976680;28;66529;-44
2022/02/26 10:35:46;;;;;;;;;;;;;;;32.67;57.44;100906.81;4978461;28;69443;-43
2022/02/26 10:38:22;;;;;;;;;;;;;;;32.65;56.51;100903.47;4976222;28;66273;-44
2022/02/26 10:40:53;;;;;;;;;;;;;;;32.65;56.86;100908.91;4972745;28;70335;-45
2022/02/26 10:43:41;;;;;;;;;;;;;;;32.64;57.22;100912.69;4975566;28;66737;-43
2022/02/26 10:46:23;;;;;;;;;;;;;;;32.60;56.97;100916.97;4959303;28;69903;-45
2022/02/26 10:49:03;;;;;;;;;;;;;;;32.60;55.95;100927.81;4974740;28;66370;-45
2022/02/26 10:51:37;;;;;;;;;;;;;;;32.62;56.24;100922.97;4975406;28;70023;-45
2022/02/26 10:54:11;;;;;;;;;;;;;;;32.60;56.19;100933.25;4976212;28;66858;-45
2022/02/26 10:56:42;;;;;;;;;;;;;;;32.59;55.85;100937.00;4976241;28;69825;-44
2022/02/26 10:59:13;;;;;;;;;;;;;;;32.57;55.92;100939.97;4960838;28;66066;-44
2022/02/26 11:01:57;;;;;;;;;;;;;;;32.54;55.58;100937.72;4967042;28;70156;-45
2022/02/26 11:04:28;;;;;;;;;;;;;;;32.51;55.93;100949.00;4971073;28;66059;-45
2022/02/26 11:06:59;;;;;;;;;;;;;;;32.51;55.88;100950.91;4976541;28;70496;-44
2022/02/26 11:09:29;;;;;;;;;;;;;;;32.51;55.83;100950.91;4971849;28;66951;-44
2022/02/26 11:12:00;;;;;;;;;;;;;;;32.47;56.21;100947.81;4957211;28;70478;-49
2022/02/26 11:14:31;;;;;;;;;;;;;;;32.47;56.13;100945.94;4960107;28;66324;-45
2022/02/26 11:17:04;;;;;;;;;;;;;;;32.47;55.95;100955.97;4986567;28;70235;-48
2022/02/26 11:19:35;;;;;;;;;;;;;;;32.44;56.29;100946.38;4979088;28;66687;-44
2022/02/26 11:22:04;;;;;;;;;;;;;;;32.45;56.80;100952.63;4976140;28;71191;-43
2022/02/26 11:24:35;;;;;;;;;;;;;;;32.42;56.51;100956.63;4976610;28;66012;-44
2022/02/26 11:27:05;;;;;;;;;;;;;;;32.40;56.36;100961.47;4977017;27;70183;-50
2022/02/26 11:29:34;;;;;;;;;;;;;;;32.39;57.00;100965.22;4975709;28;66305;-44
2022/02/26 11:32:05;;;;;;;;;;;;;;;32.38;56.93;100969.00;4976604;28;69253;-45
2022/02/26 11:34:38;;;;;;;;;;;;;;;32.34;56.63;100973.22;4977051;28;65789;-52
2022/02/26 11:37:09;;;;;;;;;;;;;;;32.33;57.16;100977.00;4959996;28;69248;-45
2022/02/26 11:39:41;;;;;;;;;;;;;;;32.32;57.06;100985.34;4978311;27;65898;-45
2022/02/26 11:42:14;;;;;;;;;;;;;;;32.32;57.06;100994.34;4977066;28;70296;-45
2022/02/26 11:44:52;;;;;;;;;;;;;;;32.28;56.97;100996.69;4954587;28;66028;-46
2022/02/26 11:47:34;;;;;;;;;;;;;;;32.28;57.56;101004.00;4975187;27;70057;-47
2022/02/26 11:50:21;;;;;;;;;;;;;;;32.28;57.47;101018.41;4967358;28;66387;-43
2022/02/26 11:52:55;;;;;;;;;;;;;;;32.25;57.11;101018.03;4973809;28;69433;-44
2022/02/26 11:55:47;;;;;;;;;;;;;;;32.25;57.04;101023.44;4977155;28;66361;-44
2022/02/26 11:58:33;;;;;;;;;;;;;;;32.24;56.89;101029.94;4987236;27;70362;-50
2022/02/26 12:01:05;;;;;;;;;;;;;;;32.20;56.90;101026.00;4976530;28;67006;-44
2022/02/26 12:03:43;;;;;;;;;;;;;;;32.21;57.06;101033.13;4970409;28;70228;-45
2022/02/26 12:06:13;;;;;;;;;;;;;;;32.20;56.80;101042.28;4976794;28;66082;-45
2022/02/26 12:08:44;;;;;;;;;;;;;;;32.20;56.68;101042.28;4975344;28;69979;-45
2022/02/26 12:11:20;;;;;;;;;;;;;;;32.18;56.86;101049.81;4976238;28;66547;-44
2022/02/26 12:13:53;;;;;;;;;;;;;;;32.15;56.63;101053.00;4970914;28;70093;-44
2022/02/26 12:16:25;;;;;;;;;;;;;;;32.15;56.87;101056.56;4979067;28;66615;-45
2022/02/26 12:18:59;;;;;;;;;;;;;;;32.13;57.39;101055.13;4976771;28;70023;-44
2022/02/26 12:21:30;;;;;;;;;;;;;;;32.17;57.84;101056.31;4981162;27;68062;-42
2022/02/26 12:24:04;;;;;;;;;;;;;;;32.16;58.30;101065.53;4978567;28;70082;-41
2022/02/26 12:26:52;;;;;;;;;;;;;;;32.19;57.51;101068.63;4997747;28;66037;-41
2022/02/26 12:29:24;;;;;;;;;;;;;;;32.17;57.83;101064.47;4973474;28;69784;-41
2022/02/26 12:32:02;;;;;;;;;;;;;;;32.18;57.20;101071.53;4966537;28;66241;-40
2022/02/26 12:34:47;;;;;;;;;;;;;;;32.19;57.49;101073.22;4978684;28;70073;-40
2022/02/26 12:37:18;;;;;;;;;;;;;;;32.17;57.38;101078.84;4961792;28;66949;-41
2022/02/26 12:39:51;;;;;;;;;;;;;;;32.18;57.49;101076.97;4972330;28;71879;-40
2022/02/26 12:42:31;;;;;;;;;;;;;;;32.18;57.50;101076.97;4977824;28;66161;-41
2022/02/26 12:45:22;;;;;;;;;;;;;;;32.19;57.62;101073.22;4954234;28;70004;-39
2022/02/26 12:47:52;;;;;;;;;;;;;;;32.15;57.54;101081.00;4976461;28;66215;-46
2022/02/26 12:50:25;;;;;;;;;;;;;;;32.12;57.39;101086.84;4959377;28;70240;-40
2022/02/26 12:53:02;;;;;;;;;;;;;;;32.15;57.10;101091.00;4959583;28;66147;-41
2022/02/26 12:55:52;;;;;;;;;;;;;;;32.13;57.08;101093.13;4957051;28;68362;-39
2022/02/26 12:58:38;;;;;;;;;;;;;;;32.11;56.67;101092.50;4972666;27;66576;-40